sensor_id;sensor_type;location;lat;lon;timestamp;P1;durP1;ratioP1;P2;durP2;ratioP2
81191;SDS011;70665;47.652;-2.730;2024-02-26T00:01:53;24.20;;;11.25;;
81191;SDS011;70665;47.652;-2.730;2024-02-26T00:04:19;20.02;;;9.23;;
81191;SDS011;70665;47.652;-2.730;2024-02-26T00:06:46;21.35;;;10.52;;
81191;SDS011;70665;47.652;-2.730;2024-02-26T00:11:38;16.20;;;8.98;;
81191;SDS011;70665;47.652;-2.730;2024-02-26T00:14:04;22.27;;;8.93;;
81191;SDS011;70665;47.652;-2.730;2024-02-26T00:16:30;17.85;;;10.63;;
81191;SDS011;70665;47.652;-2.730;2024-02-26T00:18:55;20.15;;;9.55;;
81191;SDS011;70665;47.652;-2.730;2024-02-26T00:21:21;14.48;;;7.95;;
81191;SDS011;70665;47.652;-2.730;2024-02-26T00:23:47;17.13;;;9.18;;
81191;SDS011;70665;47.652;-2.730;2024-02-26T00:26:14;20.58;;;10.20;;
81191;SDS011;70665;47.652;-2.730;2024-02-26T00:28:40;25.60;;;11.98;;
81191;SDS011;70665;47.652;-2.730;2024-02-26T00:31:05;22.05;;;10.57;;
81191;SDS011;70665;47.652;-2.730;2024-02-26T00:33:31;25.48;;;10.50;;
81191;SDS011;70665;47.652;-2.730;2024-02-26T00:35:57;23.17;;;8.88;;
81191;SDS011;70665;47.652;-2.730;2024-02-26T00:38:22;20.85;;;10.23;;
81191;SDS011;70665;47.652;-2.730;2024-02-26T00:40:48;21.75;;;11.52;;
81191;SDS011;70665;47.652;-2.730;2024-02-26T00:43:14;16.95;;;8.63;;
81191;SDS011;70665;47.652;-2.730;2024-02-26T00:45:39;22.90;;;11.02;;
81191;SDS011;70665;47.652;-2.730;2024-02-26T00:50:32;14.43;;;8.25;;
81191;SDS011;70665;47.652;-2.730;2024-02-26T00:52:58;19.50;;;10.88;;
81191;SDS011;70665;47.652;-2.730;2024-02-26T00:55:24;17.65;;;8.38;;
81191;SDS011;70665;47.652;-2.730;2024-02-26T00:57:50;16.10;;;10.43;;
81191;SDS011;70665;47.652;-2.730;2024-02-26T01:00:15;24.40;;;11.60;;
81191;SDS011;70665;47.652;-2.730;2024-02-26T01:02:41;23.58;;;13.10;;
81191;SDS011;70665;47.652;-2.730;2024-02-26T01:05:08;23.75;;;12.60;;
81191;SDS011;70665;47.652;-2.730;2024-02-26T01:07:36;20.17;;;10.82;;
81191;SDS011;70665;47.652;-2.730;2024-02-26T01:10:02;20.38;;;10.35;;
81191;SDS011;70665;47.652;-2.730;2024-02-26T01:12:28;16.05;;;7.90;;
81191;SDS011;70665;47.652;-2.730;2024-02-26T01:14:54;22.05;;;8.02;;
81191;SDS011;70665;47.652;-2.730;2024-02-26T01:17:20;21.17;;;6.90;;
81191;SDS011;70665;47.652;-2.730;2024-02-26T01:19:46;15.18;;;7.85;;
81191;SDS011;70665;47.652;-2.730;2024-02-26T01:22:12;28.55;;;7.40;;
81191;SDS011;70665;47.652;-2.730;2024-02-26T01:24:37;16.77;;;5.78;;
81191;SDS011;70665;47.652;-2.730;2024-02-26T01:27:03;12.60;;;6.63;;
81191;SDS011;70665;47.652;-2.730;2024-02-26T01:29:29;13.90;;;6.00;;
81191;SDS011;70665;47.652;-2.730;2024-02-26T01:31:55;13.30;;;5.10;;
81191;SDS011;70665;47.652;-2.730;2024-02-26T01:34:21;9.07;;;5.75;;
81191;SDS011;70665;47.652;-2.730;2024-02-26T01:36:47;9.98;;;5.00;;
81191;SDS011;70665;47.652;-2.730;2024-02-26T01:39:12;11.30;;;6.40;;
81191;SDS011;70665;47.652;-2.730;2024-02-26T01:41:38;8.73;;;5.53;;
81191;SDS011;70665;47.652;-2.730;2024-02-26T01:44:05;9.55;;;5.05;;
81191;SDS011;70665;47.652;-2.730;2024-02-26T01:46:32;7.80;;;4.78;;
81191;SDS011;70665;47.652;-2.730;2024-02-26T01:48:59;10.30;;;5.32;;
81191;SDS011;70665;47.652;-2.730;2024-02-26T01:51:26;11.23;;;5.53;;
81191;SDS011;70665;47.652;-2.730;2024-02-26T01:53:53;9.02;;;4.85;;
81191;SDS011;70665;47.652;-2.730;2024-02-26T01:56:18;8.93;;;6.20;;
81191;SDS011;70665;47.652;-2.730;2024-02-26T01:58:46;10.48;;;6.65;;
81191;SDS011;70665;47.652;-2.730;2024-02-26T02:01:12;8.45;;;5.72;;
81191;SDS011;70665;47.652;-2.730;2024-02-26T02:03:40;9.68;;;5.35;;
81191;SDS011;70665;47.652;-2.730;2024-02-26T02:06:06;9.07;;;4.93;;
81191;SDS011;70665;47.652;-2.730;2024-02-26T02:08:33;8.75;;;3.92;;
81191;SDS011;70665;47.652;-2.730;2024-02-26T02:11:00;8.80;;;4.72;;
81191;SDS011;70665;47.652;-2.730;2024-02-26T02:13:26;8.18;;;3.75;;
81191;SDS011;70665;47.652;-2.730;2024-02-26T02:15:51;7.43;;;3.75;;
81191;SDS011;70665;47.652;-2.730;2024-02-26T02:18:17;8.38;;;4.47;;
81191;SDS011;70665;47.652;-2.730;2024-02-26T02:20:44;7.32;;;4.45;;
81191;SDS011;70665;47.652;-2.730;2024-02-26T02:23:10;10.98;;;4.22;;
81191;SDS011;70665;47.652;-2.730;2024-02-26T02:25:35;7.38;;;4.55;;
81191;SDS011;70665;47.652;-2.730;2024-02-26T02:28:01;6.38;;;4.07;;
81191;SDS011;70665;47.652;-2.730;2024-02-26T02:30:28;6.70;;;4.30;;
81191;SDS011;70665;47.652;-2.730;2024-02-26T02:32:55;7.28;;;4.50;;
81191;SDS011;70665;47.652;-2.730;2024-02-26T02:35:23;7.85;;;4.32;;
81191;SDS011;70665;47.652;-2.730;2024-02-26T02:37:50;7.70;;;3.92;;
81191;SDS011;70665;47.652;-2.730;2024-02-26T02:40:19;7.22;;;3.60;;
81191;SDS011;70665;47.652;-2.730;2024-02-26T02:42:45;7.07;;;3.75;;
81191;SDS011;70665;47.652;-2.730;2024-02-26T02:45:10;7.70;;;3.80;;
81191;SDS011;70665;47.652;-2.730;2024-02-26T02:47:36;8.85;;;4.03;;
81191;SDS011;70665;47.652;-2.730;2024-02-26T02:50:05;8.45;;;4.43;;
81191;SDS011;70665;47.652;-2.730;2024-02-26T02:52:31;6.10;;;4.05;;
81191;SDS011;70665;47.652;-2.730;2024-02-26T02:54:56;7.95;;;4.30;;
81191;SDS011;70665;47.652;-2.730;2024-02-26T02:57:23;8.30;;;4.25;;
81191;SDS011;70665;47.652;-2.730;2024-02-26T02:59:48;6.72;;;3.72;;
81191;SDS011;70665;47.652;-2.730;2024-02-26T03:02:14;6.43;;;3.95;;
81191;SDS011;70665;47.652;-2.730;2024-02-26T03:04:40;6.05;;;3.88;;
81191;SDS011;70665;47.652;-2.730;2024-02-26T03:07:05;10.45;;;4.30;;
81191;SDS011;70665;47.652;-2.730;2024-02-26T03:09:31;8.18;;;4.00;;
81191;SDS011;70665;47.652;-2.730;2024-02-26T03:11:57;7.15;;;3.78;;
81191;SDS011;70665;47.652;-2.730;2024-02-26T03:14:23;5.80;;;3.10;;
81191;SDS011;70665;47.652;-2.730;2024-02-26T03:16:48;7.65;;;2.85;;
81191;SDS011;70665;47.652;-2.730;2024-02-26T03:19:15;4.40;;;2.92;;
81191;SDS011;70665;47.652;-2.730;2024-02-26T03:21:43;3.85;;;2.28;;
81191;SDS011;70665;47.652;-2.730;2024-02-26T03:24:09;3.28;;;2.30;;
81191;SDS011;70665;47.652;-2.730;2024-02-26T03:26:35;6.78;;;2.42;;
81191;SDS011;70665;47.652;-2.730;2024-02-26T03:29:01;5.20;;;2.95;;
81191;SDS011;70665;47.652;-2.730;2024-02-26T03:31:28;6.72;;;1.85;;
81191;SDS011;70665;47.652;-2.730;2024-02-26T03:33:53;3.58;;;2.00;;
81191;SDS011;70665;47.652;-2.730;2024-02-26T03:36:19;5.15;;;2.20;;
81191;SDS011;70665;47.652;-2.730;2024-02-26T03:38:46;4.90;;;2.08;;
81191;SDS011;70665;47.652;-2.730;2024-02-26T03:43:38;3.42;;;1.88;;
81191;SDS011;70665;47.652;-2.730;2024-02-26T03:46:06;5.22;;;2.40;;
81191;SDS011;70665;47.652;-2.730;2024-02-26T03:48:32;3.78;;;2.28;;
81191;SDS011;70665;47.652;-2.730;2024-02-26T03:50:58;4.25;;;1.70;;
81191;SDS011;70665;47.652;-2.730;2024-02-26T03:53:23;3.75;;;1.65;;
81191;SDS011;70665;47.652;-2.730;2024-02-26T03:55:49;5.07;;;1.33;;
81191;SDS011;70665;47.652;-2.730;2024-02-26T03:58:17;7.55;;;3.20;;
81191;SDS011;70665;47.652;-2.730;2024-02-26T04:00:42;3.03;;;1.40;;
81191;SDS011;70665;47.652;-2.730;2024-02-26T04:05:34;2.50;;;0.82;;
81191;SDS011;70665;47.652;-2.730;2024-02-26T04:08:00;2.20;;;0.90;;
81191;SDS011;70665;47.652;-2.730;2024-02-26T04:10:25;1.33;;;1.23;;
81191;SDS011;70665;47.652;-2.730;2024-02-26T04:12:51;4.47;;;1.30;;
81191;SDS011;70665;47.652;-2.730;2024-02-26T04:15:17;1.52;;;0.98;;
81191;SDS011;70665;47.652;-2.730;2024-02-26T04:17:42;2.40;;;1.40;;
81191;SDS011;70665;47.652;-2.730;2024-02-26T04:20:12;1.55;;;1.10;;
81191;SDS011;70665;47.652;-2.730;2024-02-26T04:22:39;1.67;;;1.10;;
81191;SDS011;70665;47.652;-2.730;2024-02-26T04:25:05;1.67;;;0.60;;
81191;SDS011;70665;47.652;-2.730;2024-02-26T04:27:30;3.92;;;1.10;;
81191;SDS011;70665;47.652;-2.730;2024-02-26T04:29:56;2.80;;;1.08;;
81191;SDS011;70665;47.652;-2.730;2024-02-26T04:32:22;3.67;;;1.17;;
81191;SDS011;70665;47.652;-2.730;2024-02-26T04:34:47;0.73;;;0.57;;
81191;SDS011;70665;47.652;-2.730;2024-02-26T04:37:13;1.05;;;1.02;;
81191;SDS011;70665;47.652;-2.730;2024-02-26T04:39:39;2.67;;;1.40;;
81191;SDS011;70665;47.652;-2.730;2024-02-26T04:42:04;2.13;;;2.03;;
81191;SDS011;70665;47.652;-2.730;2024-02-26T04:44:30;1.55;;;1.13;;
81191;SDS011;70665;47.652;-2.730;2024-02-26T04:46:56;3.72;;;1.40;;
81191;SDS011;70665;47.652;-2.730;2024-02-26T04:49:21;1.98;;;0.65;;
81191;SDS011;70665;47.652;-2.730;2024-02-26T04:51:47;2.63;;;1.05;;
81191;SDS011;70665;47.652;-2.730;2024-02-26T04:54:13;2.67;;;1.00;;
81191;SDS011;70665;47.652;-2.730;2024-02-26T04:56:39;2.25;;;0.93;;
81191;SDS011;70665;47.652;-2.730;2024-02-26T04:59:04;1.75;;;1.15;;
81191;SDS011;70665;47.652;-2.730;2024-02-26T05:01:30;2.65;;;1.58;;
81191;SDS011;70665;47.652;-2.730;2024-02-26T05:03:56;2.85;;;1.17;;
81191;SDS011;70665;47.652;-2.730;2024-02-26T05:06:21;1.42;;;1.17;;
81191;SDS011;70665;47.652;-2.730;2024-02-26T05:08:47;3.45;;;1.30;;
81191;SDS011;70665;47.652;-2.730;2024-02-26T05:11:12;1.80;;;1.10;;
81191;SDS011;70665;47.652;-2.730;2024-02-26T05:13:38;5.10;;;1.13;;
81191;SDS011;70665;47.652;-2.730;2024-02-26T05:16:04;1.50;;;1.05;;
81191;SDS011;70665;47.652;-2.730;2024-02-26T05:18:30;3.10;;;1.10;;
81191;SDS011;70665;47.652;-2.730;2024-02-26T05:20:56;3.45;;;1.33;;
81191;SDS011;70665;47.652;-2.730;2024-02-26T05:23:21;3.60;;;1.35;;
81191;SDS011;70665;47.652;-2.730;2024-02-26T05:25:48;2.40;;;1.20;;
81191;SDS011;70665;47.652;-2.730;2024-02-26T05:28:14;2.95;;;1.30;;
81191;SDS011;70665;47.652;-2.730;2024-02-26T05:30:45;2.70;;;1.20;;
81191;SDS011;70665;47.652;-2.730;2024-02-26T05:33:11;4.28;;;1.80;;
81191;SDS011;70665;47.652;-2.730;2024-02-26T05:35:37;3.72;;;1.17;;
81191;SDS011;70665;47.652;-2.730;2024-02-26T05:38:03;2.55;;;1.27;;
81191;SDS011;70665;47.652;-2.730;2024-02-26T05:40:28;8.93;;;1.40;;
81191;SDS011;70665;47.652;-2.730;2024-02-26T05:42:55;1.85;;;1.20;;
81191;SDS011;70665;47.652;-2.730;2024-02-26T05:45:20;4.05;;;0.82;;
81191;SDS011;70665;47.652;-2.730;2024-02-26T05:47:47;2.65;;;0.77;;
81191;SDS011;70665;47.652;-2.730;2024-02-26T05:50:13;1.27;;;0.60;;
81191;SDS011;70665;47.652;-2.730;2024-02-26T05:52:40;1.80;;;1.10;;
81191;SDS011;70665;47.652;-2.730;2024-02-26T05:55:06;4.20;;;1.20;;
81191;SDS011;70665;47.652;-2.730;2024-02-26T05:57:33;3.00;;;1.25;;
81191;SDS011;70665;47.652;-2.730;2024-02-26T05:59:59;1.30;;;1.13;;
81191;SDS011;70665;47.652;-2.730;2024-02-26T06:02:28;5.88;;;1.20;;
81191;SDS011;70665;47.652;-2.730;2024-02-26T06:07:20;2.92;;;0.95;;
81191;SDS011;70665;47.652;-2.730;2024-02-26T06:09:46;2.45;;;1.40;;
81191;SDS011;70665;47.652;-2.730;2024-02-26T06:12:11;6.47;;;1.35;;
81191;SDS011;70665;47.652;-2.730;2024-02-26T06:14:37;4.38;;;1.90;;
81191;SDS011;70665;47.652;-2.730;2024-02-26T06:17:02;2.58;;;1.45;;
81191;SDS011;70665;47.652;-2.730;2024-02-26T06:19:28;4.38;;;1.00;;
81191;SDS011;70665;47.652;-2.730;2024-02-26T06:21:54;3.08;;;1.65;;
81191;SDS011;70665;47.652;-2.730;2024-02-26T06:24:19;2.30;;;1.10;;
81191;SDS011;70665;47.652;-2.730;2024-02-26T06:26:47;1.50;;;0.50;;
81191;SDS011;70665;47.652;-2.730;2024-02-26T06:29:13;1.08;;;1.00;;
81191;SDS011;70665;47.652;-2.730;2024-02-26T06:31:39;2.08;;;0.75;;
81191;SDS011;70665;47.652;-2.730;2024-02-26T06:34:05;3.28;;;1.08;;
81191;SDS011;70665;47.652;-2.730;2024-02-26T06:36:30;4.15;;;1.35;;
81191;SDS011;70665;47.652;-2.730;2024-02-26T06:41:22;2.15;;;1.23;;
81191;SDS011;70665;47.652;-2.730;2024-02-26T06:43:55;2.40;;;1.23;;
81191;SDS011;70665;47.652;-2.730;2024-02-26T06:46:21;2.85;;;1.00;;
81191;SDS011;70665;47.652;-2.730;2024-02-26T06:48:48;3.63;;;1.55;;
81191;SDS011;70665;47.652;-2.730;2024-02-26T06:53:39;1.80;;;0.63;;
81191;SDS011;70665;47.652;-2.730;2024-02-26T06:56:05;4.03;;;1.38;;
81191;SDS011;70665;47.652;-2.730;2024-02-26T06:58:31;3.95;;;1.60;;
81191;SDS011;70665;47.652;-2.730;2024-02-26T07:00:56;1.52;;;0.75;;
81191;SDS011;70665;47.652;-2.730;2024-02-26T07:03:22;3.72;;;1.45;;
81191;SDS011;70665;47.652;-2.730;2024-02-26T07:05:49;3.22;;;1.23;;
81191;SDS011;70665;47.652;-2.730;2024-02-26T07:08:15;2.72;;;1.45;;
81191;SDS011;70665;47.652;-2.730;2024-02-26T07:10:41;0.98;;;0.93;;
81191;SDS011;70665;47.652;-2.730;2024-02-26T07:13:07;4.38;;;1.40;;
81191;SDS011;70665;47.652;-2.730;2024-02-26T07:15:32;1.35;;;1.23;;
81191;SDS011;70665;47.652;-2.730;2024-02-26T07:17:58;2.20;;;1.10;;
81191;SDS011;70665;47.652;-2.730;2024-02-26T07:20:28;3.47;;;1.33;;
81191;SDS011;70665;47.652;-2.730;2024-02-26T07:22:54;1.88;;;0.82;;
81191;SDS011;70665;47.652;-2.730;2024-02-26T07:25:20;1.95;;;1.30;;
81191;SDS011;70665;47.652;-2.730;2024-02-26T07:27:46;2.53;;;1.25;;
81191;SDS011;70665;47.652;-2.730;2024-02-26T07:30:11;1.13;;;0.63;;
81191;SDS011;70665;47.652;-2.730;2024-02-26T07:32:38;1.50;;;0.75;;
81191;SDS011;70665;47.652;-2.730;2024-02-26T07:35:03;3.00;;;0.75;;
81191;SDS011;70665;47.652;-2.730;2024-02-26T07:37:30;5.20;;;1.65;;
81191;SDS011;70665;47.652;-2.730;2024-02-26T07:39:55;2.58;;;1.23;;
81191;SDS011;70665;47.652;-2.730;2024-02-26T07:42:21;2.05;;;0.88;;
81191;SDS011;70665;47.652;-2.730;2024-02-26T07:44:47;2.45;;;1.10;;
81191;SDS011;70665;47.652;-2.730;2024-02-26T07:47:12;1.98;;;0.75;;
81191;SDS011;70665;47.652;-2.730;2024-02-26T07:49:39;2.90;;;1.30;;
81191;SDS011;70665;47.652;-2.730;2024-02-26T07:52:05;6.00;;;0.90;;
81191;SDS011;70665;47.652;-2.730;2024-02-26T07:54:31;4.40;;;1.10;;
81191;SDS011;70665;47.652;-2.730;2024-02-26T07:56:56;4.07;;;1.33;;
81191;SDS011;70665;47.652;-2.730;2024-02-26T07:59:22;2.10;;;1.05;;
81191;SDS011;70665;47.652;-2.730;2024-02-26T08:01:49;2.83;;;1.40;;
81191;SDS011;70665;47.652;-2.730;2024-02-26T08:04:16;2.70;;;0.82;;
81191;SDS011;70665;47.652;-2.730;2024-02-26T08:06:41;2.22;;;1.00;;
81191;SDS011;70665;47.652;-2.730;2024-02-26T08:09:08;2.50;;;0.90;;
81191;SDS011;70665;47.652;-2.730;2024-02-26T08:11:34;4.00;;;0.85;;
81191;SDS011;70665;47.652;-2.730;2024-02-26T08:13:59;2.22;;;0.90;;
81191;SDS011;70665;47.652;-2.730;2024-02-26T08:16:25;1.38;;;1.17;;
81191;SDS011;70665;47.652;-2.730;2024-02-26T08:18:51;3.67;;;0.90;;
81191;SDS011;70665;47.652;-2.730;2024-02-26T08:21:17;1.80;;;0.88;;
81191;SDS011;70665;47.652;-2.730;2024-02-26T08:23:45;2.40;;;0.93;;
81191;SDS011;70665;47.652;-2.730;2024-02-26T08:26:11;1.48;;;0.80;;
81191;SDS011;70665;47.652;-2.730;2024-02-26T08:28:37;1.08;;;0.93;;
81191;SDS011;70665;47.652;-2.730;2024-02-26T08:31:03;1.35;;;1.10;;
81191;SDS011;70665;47.652;-2.730;2024-02-26T08:33:29;3.80;;;1.08;;
81191;SDS011;70665;47.652;-2.730;2024-02-26T08:35:55;2.47;;;1.50;;
81191;SDS011;70665;47.652;-2.730;2024-02-26T08:38:21;2.42;;;1.30;;
81191;SDS011;70665;47.652;-2.730;2024-02-26T08:40:47;4.05;;;1.58;;
81191;SDS011;70665;47.652;-2.730;2024-02-26T08:45:39;1.60;;;1.00;;
81191;SDS011;70665;47.652;-2.730;2024-02-26T08:48:04;2.42;;;1.35;;
81191;SDS011;70665;47.652;-2.730;2024-02-26T08:50:30;6.53;;;1.10;;
81191;SDS011;70665;47.652;-2.730;2024-02-26T08:52:56;2.50;;;1.52;;
81191;SDS011;70665;47.652;-2.730;2024-02-26T08:55:22;5.10;;;1.00;;
81191;SDS011;70665;47.652;-2.730;2024-02-26T08:57:47;2.63;;;1.98;;
81191;SDS011;70665;47.652;-2.730;2024-02-26T09:00:13;4.95;;;1.90;;
81191;SDS011;70665;47.652;-2.730;2024-02-26T09:02:40;3.05;;;1.67;;
81191;SDS011;70665;47.652;-2.730;2024-02-26T09:05:08;3.50;;;1.50;;
81191;SDS011;70665;47.652;-2.730;2024-02-26T09:10:01;4.53;;;1.65;;
81191;SDS011;70665;47.652;-2.730;2024-02-26T09:12:27;2.70;;;1.60;;
81191;SDS011;70665;47.652;-2.730;2024-02-26T09:14:53;5.30;;;1.50;;
81191;SDS011;70665;47.652;-2.730;2024-02-26T09:17:21;3.08;;;1.30;;
81191;SDS011;70665;47.652;-2.730;2024-02-26T09:19:46;5.82;;;1.35;;
81191;SDS011;70665;47.652;-2.730;2024-02-26T09:22:12;3.47;;;1.45;;
81191;SDS011;70665;47.652;-2.730;2024-02-26T09:24:38;8.15;;;2.15;;
81191;SDS011;70665;47.652;-2.730;2024-02-26T09:27:03;5.07;;;1.42;;
81191;SDS011;70665;47.652;-2.730;2024-02-26T09:29:31;4.10;;;1.50;;
81191;SDS011;70665;47.652;-2.730;2024-02-26T09:31:57;7.05;;;2.38;;
81191;SDS011;70665;47.652;-2.730;2024-02-26T09:34:23;6.85;;;1.52;;
81191;SDS011;70665;47.652;-2.730;2024-02-26T09:36:49;6.47;;;2.00;;
81191;SDS011;70665;47.652;-2.730;2024-02-26T09:39:15;3.08;;;1.90;;
81191;SDS011;70665;47.652;-2.730;2024-02-26T09:41:45;4.10;;;1.63;;
81191;SDS011;70665;47.652;-2.730;2024-02-26T09:44:11;7.63;;;2.17;;
81191;SDS011;70665;47.652;-2.730;2024-02-26T09:46:40;6.10;;;2.63;;
81191;SDS011;70665;47.652;-2.730;2024-02-26T09:49:06;5.90;;;1.92;;
81191;SDS011;70665;47.652;-2.730;2024-02-26T09:51:33;2.85;;;1.73;;
81191;SDS011;70665;47.652;-2.730;2024-02-26T09:53:59;4.10;;;1.70;;
81191;SDS011;70665;47.652;-2.730;2024-02-26T09:56:28;4.85;;;1.98;;
81191;SDS011;70665;47.652;-2.730;2024-02-26T09:58:57;4.45;;;1.48;;
81191;SDS011;70665;47.652;-2.730;2024-02-26T10:01:24;2.25;;;1.50;;
81191;SDS011;70665;47.652;-2.730;2024-02-26T10:03:59;4.05;;;2.03;;
81191;SDS011;70665;47.652;-2.730;2024-02-26T10:06:28;2.25;;;1.10;;
81191;SDS011;70665;47.652;-2.730;2024-02-26T10:08:54;4.95;;;1.50;;
81191;SDS011;70665;47.652;-2.730;2024-02-26T10:11:21;5.55;;;1.50;;
81191;SDS011;70665;47.652;-2.730;2024-02-26T10:13:48;6.63;;;1.40;;
81191;SDS011;70665;47.652;-2.730;2024-02-26T10:16:14;3.58;;;1.75;;
81191;SDS011;70665;47.652;-2.730;2024-02-26T10:18:47;5.45;;;1.60;;
81191;SDS011;70665;47.652;-2.730;2024-02-26T10:21:13;6.35;;;1.58;;
81191;SDS011;70665;47.652;-2.730;2024-02-26T10:23:42;4.68;;;1.50;;
81191;SDS011;70665;47.652;-2.730;2024-02-26T10:26:10;4.95;;;1.45;;
81191;SDS011;70665;47.652;-2.730;2024-02-26T10:28:37;14.98;;;2.85;;
81191;SDS011;70665;47.652;-2.730;2024-02-26T10:31:04;5.68;;;2.45;;
81191;SDS011;70665;47.652;-2.730;2024-02-26T10:33:30;6.72;;;2.13;;
81191;SDS011;70665;47.652;-2.730;2024-02-26T10:35:58;6.93;;;2.30;;
81191;SDS011;70665;47.652;-2.730;2024-02-26T10:38:24;4.57;;;2.05;;
81191;SDS011;70665;47.652;-2.730;2024-02-26T10:40:49;13.80;;;2.80;;
81191;SDS011;70665;47.652;-2.730;2024-02-26T10:43:15;12.30;;;2.28;;
81191;SDS011;70665;47.652;-2.730;2024-02-26T10:45:41;6.20;;;1.98;;
81191;SDS011;70665;47.652;-2.730;2024-02-26T10:48:13;5.22;;;1.60;;
81191;SDS011;70665;47.652;-2.730;2024-02-26T10:50:39;10.73;;;2.80;;
81191;SDS011;70665;47.652;-2.730;2024-02-26T10:53:07;12.68;;;2.75;;
81191;SDS011;70665;47.652;-2.730;2024-02-26T10:55:40;10.40;;;2.50;;
81191;SDS011;70665;47.652;-2.730;2024-02-26T10:58:06;8.48;;;2.60;;
81191;SDS011;70665;47.652;-2.730;2024-02-26T11:00:33;6.57;;;2.08;;
81191;SDS011;70665;47.652;-2.730;2024-02-26T11:03:01;9.13;;;2.90;;
81191;SDS011;70665;47.652;-2.730;2024-02-26T11:05:30;8.40;;;2.60;;
81191;SDS011;70665;47.652;-2.730;2024-02-26T11:07:58;9.13;;;2.17;;
81191;SDS011;70665;47.652;-2.730;2024-02-26T11:10:25;7.47;;;1.90;;
81191;SDS011;70665;47.652;-2.730;2024-02-26T11:12:55;11.63;;;2.78;;
81191;SDS011;70665;47.652;-2.730;2024-02-26T11:15:22;11.80;;;2.85;;
81191;SDS011;70665;47.652;-2.730;2024-02-26T11:17:49;9.23;;;2.20;;
81191;SDS011;70665;47.652;-2.730;2024-02-26T11:20:17;7.78;;;2.15;;
81191;SDS011;70665;47.652;-2.730;2024-02-26T11:22:44;17.90;;;3.00;;
81191;SDS011;70665;47.652;-2.730;2024-02-26T11:25:10;8.77;;;2.60;;
81191;SDS011;70665;47.652;-2.730;2024-02-26T11:27:39;12.57;;;2.83;;
81191;SDS011;70665;47.652;-2.730;2024-02-26T11:30:29;7.85;;;2.10;;
81191;SDS011;70665;47.652;-2.730;2024-02-26T11:32:57;6.68;;;2.28;;
81191;SDS011;70665;47.652;-2.730;2024-02-26T11:35:23;11.23;;;2.08;;
81191;SDS011;70665;47.652;-2.730;2024-02-26T11:37:56;9.65;;;2.60;;
81191;SDS011;70665;47.652;-2.730;2024-02-26T11:40:25;6.60;;;2.22;;
81191;SDS011;70665;47.652;-2.730;2024-02-26T11:42:51;11.65;;;3.13;;
81191;SDS011;70665;47.652;-2.730;2024-02-26T11:48:10;5.22;;;2.10;;
81191;SDS011;70665;47.652;-2.730;2024-02-26T11:58:35;9.30;;;2.30;;
81191;SDS011;70665;47.652;-2.730;2024-02-26T12:01:03;9.32;;;2.97;;
81191;SDS011;70665;47.652;-2.730;2024-02-26T12:03:29;8.18;;;1.83;;
81191;SDS011;70665;47.652;-2.730;2024-02-26T12:05:56;7.53;;;1.77;;
81191;SDS011;70665;47.652;-2.730;2024-02-26T12:08:21;7.50;;;3.03;;
81191;SDS011;70665;47.652;-2.730;2024-02-26T12:10:48;9.52;;;2.72;;
81191;SDS011;70665;47.652;-2.730;2024-02-26T12:13:14;9.75;;;2.83;;
81191;SDS011;70665;47.652;-2.730;2024-02-26T12:15:41;12.13;;;2.22;;
81191;SDS011;70665;47.652;-2.730;2024-02-26T12:18:09;8.80;;;2.35;;
81191;SDS011;70665;47.652;-2.730;2024-02-26T12:20:36;9.18;;;3.22;;
81191;SDS011;70665;47.652;-2.730;2024-02-26T12:23:02;7.07;;;2.22;;
81191;SDS011;70665;47.652;-2.730;2024-02-26T12:25:32;7.20;;;3.03;;
81191;SDS011;70665;47.652;-2.730;2024-02-26T12:27:58;6.88;;;2.30;;
81191;SDS011;70665;47.652;-2.730;2024-02-26T12:30:24;10.98;;;2.42;;
81191;SDS011;70665;47.652;-2.730;2024-02-26T12:32:54;9.35;;;2.53;;
81191;SDS011;70665;47.652;-2.730;2024-02-26T12:35:25;13.32;;;3.33;;
81191;SDS011;70665;47.652;-2.730;2024-02-26T12:37:52;7.45;;;2.38;;
81191;SDS011;70665;47.652;-2.730;2024-02-26T12:40:18;16.10;;;2.55;;
81191;SDS011;70665;47.652;-2.730;2024-02-26T12:42:44;10.95;;;2.60;;
81191;SDS011;70665;47.652;-2.730;2024-02-26T12:45:11;8.60;;;2.53;;
81191;SDS011;70665;47.652;-2.730;2024-02-26T12:47:39;5.90;;;2.58;;
81191;SDS011;70665;47.652;-2.730;2024-02-26T12:50:06;8.68;;;1.90;;
81191;SDS011;70665;47.652;-2.730;2024-02-26T12:52:36;14.60;;;2.90;;
81191;SDS011;70665;47.652;-2.730;2024-02-26T12:55:05;8.18;;;2.60;;
81191;SDS011;70665;47.652;-2.730;2024-02-26T12:57:35;15.23;;;3.42;;
81191;SDS011;70665;47.652;-2.730;2024-02-26T13:00:02;13.20;;;2.53;;
81191;SDS011;70665;47.652;-2.730;2024-02-26T13:02:36;7.03;;;1.65;;
81191;SDS011;70665;47.652;-2.730;2024-02-26T13:05:04;9.10;;;2.90;;
81191;SDS011;70665;47.652;-2.730;2024-02-26T13:07:32;9.77;;;2.83;;
81191;SDS011;70665;47.652;-2.730;2024-02-26T13:09:58;9.93;;;2.30;;
81191;SDS011;70665;47.652;-2.730;2024-02-26T13:12:24;9.05;;;2.10;;
81191;SDS011;70665;47.652;-2.730;2024-02-26T13:15:00;7.70;;;2.20;;
81191;SDS011;70665;47.652;-2.730;2024-02-26T13:17:26;7.15;;;2.20;;
81191;SDS011;70665;47.652;-2.730;2024-02-26T13:19:53;9.20;;;1.75;;
81191;SDS011;70665;47.652;-2.730;2024-02-26T13:22:22;7.80;;;1.75;;
81191;SDS011;70665;47.652;-2.730;2024-02-26T13:24:54;10.50;;;3.53;;
81191;SDS011;70665;47.652;-2.730;2024-02-26T13:27:24;10.98;;;2.15;;
81191;SDS011;70665;47.652;-2.730;2024-02-26T13:30:04;9.35;;;2.42;;
81191;SDS011;70665;47.652;-2.730;2024-02-26T13:32:34;12.13;;;3.10;;
81191;SDS011;70665;47.652;-2.730;2024-02-26T13:35:05;7.13;;;2.53;;
81191;SDS011;70665;47.652;-2.730;2024-02-26T13:37:35;9.88;;;2.60;;
81191;SDS011;70665;47.652;-2.730;2024-02-26T13:40:08;10.35;;;2.25;;
81191;SDS011;70665;47.652;-2.730;2024-02-26T13:42:36;8.10;;;2.33;;
81191;SDS011;70665;47.652;-2.730;2024-02-26T13:45:02;14.20;;;3.28;;
81191;SDS011;70665;47.652;-2.730;2024-02-26T13:47:31;11.30;;;2.67;;
81191;SDS011;70665;47.652;-2.730;2024-02-26T13:49:58;5.63;;;2.13;;
81191;SDS011;70665;47.652;-2.730;2024-02-26T13:52:24;6.55;;;2.22;;
81191;SDS011;70665;47.652;-2.730;2024-02-26T13:54:50;10.65;;;2.30;;
81191;SDS011;70665;47.652;-2.730;2024-02-26T13:57:16;7.57;;;1.73;;
81191;SDS011;70665;47.652;-2.730;2024-02-26T13:59:42;12.15;;;3.30;;
81191;SDS011;70665;47.652;-2.730;2024-02-26T14:02:08;6.70;;;1.60;;
81191;SDS011;70665;47.652;-2.730;2024-02-26T14:07:01;5.93;;;2.78;;
81191;SDS011;70665;47.652;-2.730;2024-02-26T14:09:26;7.40;;;1.80;;
81191;SDS011;70665;47.652;-2.730;2024-02-26T14:11:52;8.50;;;2.05;;
81191;SDS011;70665;47.652;-2.730;2024-02-26T14:14:18;13.55;;;2.70;;
81191;SDS011;70665;47.652;-2.730;2024-02-26T14:16:43;9.00;;;2.33;;
81191;SDS011;70665;47.652;-2.730;2024-02-26T14:19:09;13.85;;;2.78;;
81191;SDS011;70665;47.652;-2.730;2024-02-26T14:21:34;4.50;;;2.10;;
81191;SDS011;70665;47.652;-2.730;2024-02-26T14:24:00;13.10;;;2.40;;
81191;SDS011;70665;47.652;-2.730;2024-02-26T14:26:26;10.20;;;2.05;;
81191;SDS011;70665;47.652;-2.730;2024-02-26T14:28:51;6.88;;;2.30;;
81191;SDS011;70665;47.652;-2.730;2024-02-26T14:31:17;8.05;;;2.67;;
81191;SDS011;70665;47.652;-2.730;2024-02-26T14:36:09;13.25;;;2.95;;
81191;SDS011;70665;47.652;-2.730;2024-02-26T14:38:36;10.52;;;2.50;;
81191;SDS011;70665;47.652;-2.730;2024-02-26T14:41:03;8.20;;;2.25;;
81191;SDS011;70665;47.652;-2.730;2024-02-26T14:43:29;6.25;;;2.15;;
81191;SDS011;70665;47.652;-2.730;2024-02-26T14:45:57;8.32;;;2.33;;
81191;SDS011;70665;47.652;-2.730;2024-02-26T14:48:24;11.15;;;1.70;;
81191;SDS011;70665;47.652;-2.730;2024-02-26T14:50:49;6.57;;;2.38;;
81191;SDS011;70665;47.652;-2.730;2024-02-26T14:53:15;7.57;;;1.85;;
81191;SDS011;70665;47.652;-2.730;2024-02-26T14:58:08;5.82;;;2.20;;
81191;SDS011;70665;47.652;-2.730;2024-02-26T15:00:36;5.70;;;1.92;;
81191;SDS011;70665;47.652;-2.730;2024-02-26T15:03:02;3.75;;;2.10;;
81191;SDS011;70665;47.652;-2.730;2024-02-26T15:05:28;6.57;;;2.20;;
81191;SDS011;70665;47.652;-2.730;2024-02-26T15:07:53;5.72;;;2.13;;